Time;durP1;ratioP1;P1;durP2;ratioP2;P2;SDS_P1;SDS_P2;PMS_P1;PMS_P2;Temp;Humidity;BMP_temperature;BMP_pressure;BME280_temperature;BME280_humidity;BME280_pressure;Samples;Min_cycle;Max_cycle;Signal;HPM_P1;HPM_P2
2021/11/14 12:28:34;;;;;;;;;;;;;;;;;;4955847;28;73083;-55
2021/11/14 12:37:26;;;;;;;1999.90;999.90;;;;;;;23.48;38.11;102705.50;4947356;27;30770;-58
2021/11/14 12:39:51;;;;;;;1999.90;999.90;;;;;;;23.07;39.05;102708.72;4971601;28;37744;-58
2021/11/14 12:42:17;;;;;;;1999.90;999.90;;;;;;;24.82;39.61;102685.38;4876370;28;73054;-66
2021/11/14 12:44:44;;;;;;;1999.90;999.90;;;;;;;24.35;38.30;102703.31;4955171;28;41468;-62
2021/11/14 12:47:27;;;;;;;1999.90;999.90;;;;;;;24.18;38.22;102773.69;4844959;28;40572;-66
2021/11/14 12:50:16;;;;;;;1999.90;999.90;;;;;;;22.89;37.74;102781.94;4960398;28;41520;-71
2021/11/14 12:52:46;;;;;;;1999.90;999.90;;;;;;;22.65;36.42;102722.53;4929711;28;39039;-75
2021/11/14 12:55:25;;;;;;;1999.90;999.90;;;;;;;22.64;37.20;102722.81;4970667;28;39817;-64
2021/11/14 12:57:57;;;;;;;1999.90;999.90;;;;;;;22.63;38.15;102723.97;4957892;28;21916;-66
2021/11/14 13:00:50;;;;;;;1999.90;999.90;;;;;;;22.66;39.35;102727.09;4954826;28;20153;-69
2021/11/14 13:06:36;;;;;;;138.25;128.32;;;;;;;22.68;39.09;102707.88;1508083;19;20705;-63
2021/11/14 13:07:28;;;;;;;1999.90;999.90;;;;;;;22.69;39.06;102715.22;1326972;19;86674;-64
2021/11/14 13:08:00;;;;;;;1999.90;999.90;;;;;;;22.68;39.06;102707.03;1531459;19;20490;-63
2021/11/14 13:08:33;;;;;;;1999.90;999.90;;;;;;;22.73;38.95;102721.13;1462435;19;20090;-67
2021/11/14 13:09:15;;;;;;;1999.90;999.90;;;;;;;22.74;39.13;102718.00;1438901;19;20014;-63
2021/11/14 13:12:19;;;;;;;1999.90;999.90;;;;;;;22.78;38.53;102716.28;6905831;19;20861;-70
2021/11/14 13:17:01;;;;;;;1999.90;999.90;;;;;;;22.68;38.70;102713.53;7037308;19;131415;-67
2021/11/14 13:20:14;;;;;;;1999.90;999.90;;;;;;;22.76;38.83;102723.34;7275888;19;69747;-66
2021/11/14 13:22:39;;;;;;;1999.90;999.90;;;;;;;22.70;38.82;102728.16;7360213;19;20093;-68
2021/11/14 13:25:04;;;;;;;1999.90;999.90;;;;;;;22.86;38.25;102728.94;7360915;19;20037;-65
2021/11/14 13:27:29;;;;;;;1999.90;999.90;;;;;;;23.01;38.41;102731.63;7362145;19;20018;-69
2021/11/14 13:29:54;;;;;;;1999.90;999.90;;;;;;;23.13;38.44;102726.44;7359947;19;20180;-78
2021/11/14 13:40:41;;;;;;;1999.90;999.90;;;;;;;23.45;37.66;102749.31;7232863;19;20836;-65
2021/11/14 13:43:07;;;;;;;1999.90;999.90;;;;;;;23.20;38.13;102726.94;7357557;19;20369;-77
2021/11/14 13:45:35;;;;;;;1999.90;999.90;;;;;;;23.25;37.83;102728.84;7356755;19;20025;-71
2021/11/14 13:48:06;;;;;;;1999.90;999.90;;;;;;;23.10;38.48;102735.50;7205776;19;64468;-70
2021/11/14 13:50:37;;;;;;;1999.90;999.90;;;;;;;23.08;38.27;102743.41;7346000;19;33278;-70
2021/11/14 13:54:23;;;;;;;1999.90;999.90;;;;;;;23.01;38.14;102754.19;509876;19;20729;-67
2021/11/14 13:54:55;;;;;;;1999.90;999.90;;;;;;;23.23;43.99;102750.91;510038;19;1959;-67
2021/11/14 13:55:08;;;;;;;1992.70;322.02;;;;;;;23.23;37.90;102746.09;498102;19;67988;-68
2021/11/14 13:55:19;;;;;;;117.43;108.05;;;;;;;23.24;38.08;102752.59;476180;19;18324;-69
2021/11/14 13:55:55;;;;;;;48.30;44.42;;;;;;;23.22;40.00;102747.22;420239;19;19518;-63
2021/11/14 13:56:06;;;;;;;64.72;59.47;;;;;;;23.21;37.84;102750.34;424365;19;93881;-66
2021/11/14 13:56:18;;;;;;;78.30;72.10;;;;;;;23.24;37.85;102755.41;494185;19;1529;-66
2021/11/14 13:56:28;;;;;;;70.60;65.10;;;;;;;23.20;37.96;102751.50;510254;19;1702;-66
2021/11/14 13:56:43;;;;;;;52.80;48.63;;;;;;;23.17;38.12;102747.28;510453;19;1257;-66
2021/11/14 13:56:54;;;;;;;60.58;55.97;;;;;;;23.21;38.13;102756.84;499522;19;45956;-66
2021/11/14 13:57:05;;;;;;;65.90;60.97;;;;;;;23.17;38.20;102752.94;509194;19;14917;-68
2021/11/14 13:57:16;;;;;;;60.83;56.33;;;;;;;23.16;37.98;102753.22;510901;19;1943;-67
2021/11/14 13:57:29;;;;;;;45.13;41.58;;;;;;;23.13;38.14;102743.34;510781;19;1541;-67
2021/11/14 13:57:42;;;;;;;41.40;37.92;;;;;;;23.16;38.09;102751.22;509809;19;2067;-68
2021/11/14 13:57:52;;;;;;;44.45;40.75;;;;;;;23.15;38.03;102751.53;510623;19;1347;-68
2021/11/14 13:58:03;;;;;;;48.80;44.72;;;;;;;23.16;38.10;102748.41;510872;19;1674;-68
2021/11/14 13:58:16;;;;;;;54.10;49.70;;;;;;;23.16;38.04;102748.41;510620;19;1454;-67
2021/11/14 13:58:41;;;;;;;82.40;76.05;;;;;;;23.18;37.91;102748.13;510236;19;2619;-59
2021/11/14 13:58:52;;;;;;;1372.78;275.05;;;;;;;23.17;37.50;102754.91;504145;19;68095;-69
2021/11/14 13:59:02;;;;;;;1999.90;815.60;;;;;;;23.18;37.54;102750.97;509029;19;2198;-75
2021/11/14 13:59:13;;;;;;;1999.90;999.90;;;;;;;23.22;37.67;102752.03;510714;19;1967;-69
2021/11/14 13:59:23;;;;;;;1999.90;999.90;;;;;;;23.23;38.03;102754.56;508890;19;19774;-72
2021/11/14 13:59:38;;;;;;;1999.90;999.90;;;;;;;23.20;38.10;102752.34;509962;19;1439;-70
2021/11/14 13:59:49;;;;;;;1999.90;999.90;;;;;;;23.19;37.71;102755.44;506582;19;59118;-73
2021/11/14 14:00:04;;;;;;;1999.90;999.90;;;;;;;23.14;37.97;102747.88;511339;19;1628;-70
2021/11/14 14:00:22;;;;;;;1999.90;999.90;;;;;;;23.10;37.99;102749.59;509147;19;33428;-70
2021/11/14 14:00:34;;;;;;;1999.90;999.90;;;;;;;23.04;38.14;102745.13;501500;19;28599;-65
2021/11/14 14:00:45;;;;;;;1999.90;999.90;;;;;;;23.02;37.95;102745.41;509217;19;15919;-67
2021/11/14 14:00:55;;;;;;;1999.90;999.90;;;;;;;23.00;38.31;102749.69;509698;19;2182;-70
2021/11/14 14:01:07;;;;;;;1999.90;999.90;;;;;;;23.00;37.97;102767.44;509681;19;2434;-70
2021/11/14 14:01:19;;;;;;;1999.90;999.90;;;;;;;22.95;37.93;102746.91;509130;19;11579;-72
2021/11/14 14:01:30;;;;;;;1999.90;999.90;;;;;;;22.93;38.16;102749.16;510519;19;2697;-70
2021/11/14 14:01:52;;;;;;;1999.90;999.90;;;;;;;22.84;38.36;102742.47;509598;19;2101;-74
2021/11/14 14:02:02;;;;;;;1999.90;999.90;;;;;;;22.83;38.82;102750.09;506432;19;68170;-71
2021/11/14 14:02:13;;;;;;;1999.90;999.90;;;;;;;22.81;38.32;102752.38;510965;19;1505;-71
2021/11/14 14:02:27;;;;;;;1999.90;999.90;;;;;;;22.81;38.41;102746.72;503148;19;23225;-73
2021/11/14 14:02:38;;;;;;;1999.90;999.90;;;;;;;22.79;38.55;102751.81;508069;19;23032;-71
2021/11/14 14:02:48;;;;;;;1999.90;999.90;;;;;;;22.78;38.59;102744.50;509692;19;2008;-74
2021/11/14 14:02:59;;;;;;;1999.90;999.90;;;;;;;22.77;38.58;102748.44;511283;19;1928;-71
2021/11/14 14:03:27;;;;;;;1999.90;999.90;;;;;;;22.75;38.72;102747.06;509159;19;15489;-71
2021/11/14 14:03:40;;;;;;;1999.90;999.90;;;;;;;22.73;38.69;102740.88;506806;19;67533;-72
2021/11/14 14:03:53;;;;;;;1999.90;999.90;;;;;;;22.72;38.62;102747.63;509495;19;1541;-74
2021/11/14 14:04:04;;;;;;;1999.90;999.90;;;;;;;22.69;38.79;102737.78;509992;19;2164;-72
2021/11/14 14:04:14;;;;;;;1999.90;999.90;;;;;;;22.71;38.73;102741.16;501992;19;26693;-73
2021/11/14 14:04:25;;;;;;;1999.90;999.90;;;;;;;22.72;38.97;102748.47;509739;19;26513;-73
2021/11/14 14:05:09;;;;;;;1999.90;999.90;;;;;;;22.67;38.59;102742.03;510205;19;1585;-70
2021/11/14 14:05:23;;;;;;;1999.90;999.90;;;;;;;22.65;38.96;102797.84;507296;19;68963;-71
2021/11/14 14:05:33;;;;;;;1999.90;999.90;;;;;;;22.61;38.67;102744.00;509474;19;2095;-70
2021/11/14 14:05:44;;;;;;;1999.90;999.90;;;;;;;22.63;39.27;102744.56;509849;19;2039;-76
2021/11/14 14:05:55;;;;;;;1999.90;999.90;;;;;;;22.69;41.22;102734.97;509735;19;2236;-75
2021/11/14 14:06:07;;;;;;;1999.90;999.90;;;;;;;22.83;39.49;102752.09;500785;19;18886;-73
2021/11/14 14:06:19;;;;;;;1999.90;999.90;;;;;;;22.90;39.37;102752.56;509428;19;26798;-70
2021/11/14 14:06:29;;;;;;;1999.90;999.90;;;;;;;23.27;42.46;102750.03;509885;19;2534;-64
2021/11/14 14:06:40;;;;;;;1999.90;999.90;;;;;;;23.52;39.12;102751.78;508992;19;15957;-67
2021/11/14 14:06:58;;;;;;;1999.90;999.90;;;;;;;23.98;40.68;102749.28;510394;19;1645;-63
2021/11/14 14:07:08;;;;;;;1999.90;999.90;;;;;;;24.20;43.23;102752.44;506989;19;68148;-64
2021/11/14 14:07:19;;;;;;;1999.90;999.90;;;;;;;24.35;40.34;102755.06;511690;19;1280;-64
2021/11/14 14:07:32;;;;;;;1999.90;999.90;;;;;;;24.67;40.32;102746.66;510291;19;2183;-67
2021/11/14 14:07:44;;;;;;;1999.90;999.90;;;;;;;24.69;37.49;102756.84;510139;19;1444;-67
2021/11/14 14:07:58;;;;;;;1999.90;999.90;;;;;;;24.69;35.74;102754.00;499325;19;19041;-63
2021/11/14 14:08:08;;;;;;;1999.90;999.90;;;;;;;24.70;35.65;102750.00;507723;19;30640;-69
2021/11/14 14:08:45;;;;;;;1999.90;999.90;;;;;;;24.97;36.66;102755.88;510658;19;1342;-64
2021/11/14 14:08:58;;;;;;;1999.90;980.90;;;;;;;25.04;36.31;102754.31;506076;19;67853;-62
2021/11/14 14:09:15;;;;;;;1999.90;999.90;;;;;;;25.09;39.10;102759.06;510205;19;2352;-65
2021/11/14 14:09:25;;;;;;;1999.90;999.90;;;;;;;25.07;35.81;102750.03;507479;19;68394;-64
2021/11/14 14:09:36;;;;;;;1999.90;999.90;;;;;;;25.02;35.27;102755.75;510045;19;1456;-65
2021/11/14 14:10:04;;;;;;;1999.90;999.90;;;;;;;24.86;37.72;102754.31;502472;19;19869;-63
2021/11/14 14:10:18;;;;;;;1999.90;999.90;;;;;;;24.98;36.13;102757.56;508002;19;67724;-59
2021/11/14 14:10:29;;;;;;;1999.90;999.90;;;;;;;25.04;35.46;102761.97;508367;19;22914;-59
2021/11/14 14:10:39;;;;;;;1999.90;999.90;;;;;;;25.07;35.44;102745.22;509741;19;2652;-57
2021/11/14 14:10:51;;;;;;;1999.90;999.90;;;;;;;25.15;35.38;102758.66;509590;19;1236;-58
2021/11/14 14:11:05;;;;;;;1999.90;999.90;;;;;;;25.09;35.35;102761.88;510310;19;2723;-64
2021/11/14 14:11:17;;;;;;;1999.90;999.90;;;;;;;24.94;34.99;102757.31;508979;19;45837;-71
2021/11/14 14:11:28;;;;;;;1999.90;999.90;;;;;;;24.87;35.86;102756.03;510770;19;2509;-73
2021/11/14 14:11:38;;;;;;;1999.90;999.90;;;;;;;24.77;35.77;102756.13;500932;19;23698;-70
2021/11/14 14:11:48;;;;;;;1999.90;999.90;;;;;;;24.72;35.63;102753.41;508434;19;21390;-69
2021/11/14 14:11:59;;;;;;;1999.90;999.90;;;;;;;24.58;35.77;102750.50;510465;19;1502;-69
2021/11/14 14:12:18;;;;;;;1999.90;999.90;;;;;;;24.67;37.26;102757.13;510634;19;1471;-67
2021/11/14 14:12:29;;;;;;;1999.90;999.90;;;;;;;24.70;40.49;102750.00;507380;19;67973;-71
2021/11/14 14:12:54;;;;;;;1999.90;884.10;;;;;;;24.60;38.31;102756.66;510263;19;1289;-68
2021/11/14 14:13:05;;;;;;;1999.90;999.90;;;;;;;24.59;36.41;102760.66;507380;19;67880;-68
2021/11/14 14:13:17;;;;;;;1999.90;999.90;;;;;;;24.59;37.03;102755.81;511307;19;1889;-67
2021/11/14 14:13:28;;;;;;;1999.90;999.90;;;;;;;24.60;36.05;102763.19;502311;19;16751;-65
2021/11/14 14:13:50;;;;;;;1999.90;999.90;;;;;;;24.55;36.42;102749.13;508790;19;12055;-69
2021/11/14 14:14:02;;;;;;;1999.90;999.90;;;;;;;24.22;35.85;102761.44;507275;19;68232;-69
2021/11/14 14:14:12;;;;;;;1999.90;999.90;;;;;;;24.17;35.64;102761.53;510375;19;3191;-69
2021/11/14 14:14:24;;;;;;;1999.90;999.90;;;;;;;24.16;36.28;102756.16;511170;19;1720;-69
2021/11/14 14:14:37;;;;;;;1999.90;999.90;;;;;;;24.21;41.69;102759.75;509892;19;1308;-63
2021/11/14 14:14:49;;;;;;;1006.00;505.65;;;;;;;24.50;42.57;102760.50;513536;19;1226;-69
2021/11/14 14:15:03;;;;;;;1999.90;999.90;;;;;;;25.32;43.58;102763.75;510351;19;1544;-73
2021/11/14 14:15:23;;;;;;;1999.90;999.90;;;;;;;25.41;37.23;102761.03;503115;19;18546;-68
2021/11/14 14:15:38;;;;;;;1999.90;999.90;;;;;;;25.16;35.33;102762.34;505446;19;68181;-63
2021/11/14 14:15:49;;;;;;;1999.90;999.90;;;;;;;24.91;35.61;102762.75;508252;19;45640;-65
2021/11/14 14:16:00;;;;;;;1999.90;999.90;;;;;;;24.80;35.28;102764.84;509546;19;7203;-67
2021/11/14 14:16:11;;;;;;;1999.90;999.90;;;;;;;24.70;35.30;102755.69;509050;19;3147;-65
2021/11/14 14:16:24;;;;;;;1999.90;999.90;;;;;;;24.58;35.19;102759.81;510883;19;2282;-65
2021/11/14 14:16:35;;;;;;;1999.90;999.90;;;;;;;24.52;35.57;102752.56;510399;19;1278;-64
2021/11/14 14:16:48;;;;;;;1999.90;999.90;;;;;;;24.46;35.50;102759.44;510331;19;2444;-64
2021/11/14 14:16:58;;;;;;;1999.90;999.90;;;;;;;24.54;39.97;102761.56;510265;19;1330;-67
2021/11/14 14:17:09;;;;;;;1999.90;999.90;;;;;;;24.54;35.89;102763.56;501874;19;22247;-69
2021/11/14 14:17:20;;;;;;;1999.90;999.90;;;;;;;24.56;36.25;102769.75;509987;19;6341;-67
2021/11/14 14:17:30;;;;;;;1999.90;999.90;;;;;;;24.69;40.97;102759.69;510482;19;2413;-69
2021/11/14 14:17:44;;;;;;;1999.90;999.90;;;;;;;24.81;38.89;102762.88;510042;19;2687;-67
2021/11/14 14:17:56;;;;;;;1999.90;999.90;;;;;;;24.76;40.27;102768.59;509422;19;3017;-66
2021/11/14 14:18:12;;;;;;;1999.90;999.90;;;;;;;24.76;35.98;102763.78;509957;19;2669;-58
2021/11/14 14:18:24;;;;;;;11.00;10.40;;;;;;;24.71;37.00;102769.53;508278;19;68340;-70
2021/11/14 14:18:37;;;;;;;1999.90;999.90;;;;;;;24.62;38.28;102763.72;509924;19;1601;-68
2021/11/14 14:18:48;;;;;;;1999.90;999.90;;;;;;;24.53;39.23;102765.53;508292;19;1872;-67
2021/11/14 14:18:59;;;;;;;1999.90;999.90;;;;;;;24.48;36.15;102771.28;501718;19;32488;-72
2021/11/14 14:19:09;;;;;;;1999.90;999.90;;;;;;;24.38;35.79;102768.59;509236;19;22274;-70
2021/11/14 14:19:20;;;;;;;1999.90;999.90;;;;;;;24.30;36.99;102772.09;510166;19;1807;-65
2021/11/14 14:19:30;;;;;;;1999.90;999.90;;;;;;;24.35;36.75;102771.16;447309;19;19983;-64
2021/11/14 14:20:00;;;;;;;;;;;;;;;24.42;35.63;102778.16;457874;19;12789;-64
2021/11/14 14:20:11;;;;;;;;;;;;;;;24.42;35.93;102769.66;511065;19;1343;-64
2021/11/14 14:20:21;;;;;;;;;;;;;;;24.45;35.71;102769.06;440279;19;18409;-65
2021/11/14 14:20:32;;;;;;;;;;;;;;;24.46;35.48;102767.91;435430;19;61097;-64
2021/11/14 14:20:42;;;;;;;;;;;;;;;24.45;35.49;102777.53;510582;19;2012;-64
2021/11/14 14:21:08;;;;;;;1999.90;999.90;;;;;;;;;;509652;19;21405;-64
2021/11/14 14:21:23;;;;;;;1999.90;999.90;;;;;;;;;;511292;19;1764;-64
2021/11/14 14:21:33;;;;;;;1999.90;999.90;;;;;;;;;;474055;19;62827;-65
2021/11/14 16:15:39;;;;;;;5.25;4.75;;;;;;;;;;353445;27;20106;-55
2021/11/14 16:15:50;;;;;;;5.40;4.80;;;;;;;;;;348322;27;31601;-74
2021/11/14 16:16:01;;;;;;;5.88;4.90;;;;;;;;;;353120;27;39132;-62
2021/11/14 16:16:12;;;;;;;6.47;5.13;;;;;;;;;;342140;27;10924;-65
2021/11/14 16:16:23;;;;;;;8.57;5.35;;;;;;;;;;321395;27;63314;-66
2021/11/14 16:16:58;;;;;;;8.30;5.19;;;;;;;24.75;35.92;102840.50;708622;27;20332;-63
2021/11/14 16:17:08;;;;;;;10.20;5.60;;;;;;;24.86;35.07;102864.69;343673;27;60051;-65
2021/11/14 16:17:19;;;;;;;9.33;5.83;;;;;;;24.83;40.40;102866.16;342065;27;12159;-61
2021/11/14 16:17:39;;;;;;;5.90;5.38;;;;;;;24.78;35.28;102860.53;348004;27;26087;-62
2021/11/14 16:17:50;;;;;;;6.43;5.55;;;;;;;25.26;38.39;102861.28;353178;27;20189;-65
2021/11/14 16:18:01;;;;;;;6.82;5.40;;;;;;;25.02;39.13;102849.19;322103;27;59167;-66
